Terminal Aerodrome Forecast
Issued by NWS

Home | Current Version | Previous Version | Text Only | Print | Product List | Glossary On
Versions: 1 2 3 4 5 6 7 8 9 10 11 12 13 14 15 16 17 18 19
034
FTUS43 KDLH 072340
TAFBRD
TAF
KBRD 072340Z 0800/0824 28016G21KT P6SM BKN023 OVC045
     FM080300 29017G24KT 4SM -SN BLSN OVC015
     FM080900 31014G20KT 5SM -SN BLSN OVC020
     FM081400 32014G21KT P6SM VCSH OVC025
     FM082100 33010KT P6SM OVC015=

USA.gov is the U.S. government's official web portal to all federal, state and local government web resources and services.